Bemidji SW4 at Minneapolis on Nov 9th 2012, left main gear collapsed on landing, runway excursion

Last Update: November 13, 2012 / 17:26:23 GMT/Zulu time

Bookmark this article
Incident Facts

Date of incident
Nov 9, 2012

Classification
Accident

Aircraft Registration
N619BA

ICAO Type Designator
SW4

A Bemidji Swearingen SA-227 Metro III on behalf of UPS, registration N619BA performing freight flight CH-57 from Duluth,MN to Minneapolis,MN (USA) with one crew, landed on Minneapolis' runway 12R at 20:05L (02:05Z Nov 10th) when upon touchdown the left main gear collapsed causing the aircraft to veer left off the runway. The aircraft came to a stop on soft ground near the intersection with runway 04/22, no injuries occurred, the aircraft sustained substantial damage.

Runways 12R/30L and 04/22 were closed for about 3 hours until the aircraft was removed.

The airline operates three Metroliners registrations N227LC, N611BA and N619BA according to the FAA registry.

The FAA reported on Nov 13th the aircraft N619BA suffered the collapse of the left main gear.



Metars:
KMSP 100353Z 10015KT 8SM FEW034 OVC050 08/03 A2998 RMK AO2 SLP156 T00830028
KMSP 100253Z 06008KT 10SM OVC050 08/03 A2998 RMK AO2 SLP157 T00780028 53010
KMSP 100153Z 08011KT 10SM OVC055 08/03 A2995 RMK AO2 SLP149 T00830028
KMSP 100053Z 06014G19KT 10SM OVC060 08/03 A2994 RMK AO2 SLP145 T00830028
KMSP 092353Z 06011KT 10SM OVC180 09/03 A2995 RMK AO2 SLP146 T00890028 10128 20089 55000
KMSP 092253Z 06015G18KT 7SM SCT180 BKN230 OVC300 10/03 A2993 RMK AO2 SLP143 T01000033
Aircraft Registration Data New!
Registration mark
N619BA
Country of Registration
United States
Date of Registration
J pjjeAgnljnd qn Subscribe to unlock
Manufacturer
FAIRCHILD
Aircraft Model / Type
SA227-AC
Number of Seats
ICAO Aircraft Type
SW4
Year of Manufacture
Serial Number
Aircraft Address / Mode S Code (HEX)
Engine Count
Engine Manufacturer
Engine Model
Engine Type
Main Owner
Bcfqp kAlm f AllmecAcjnjggbbifecmqqdjgAnf keep chcmegAblljhikmpAbkleAgeqnjfidegfjAqp Subscribe to unlock
Incident Facts

Date of incident
Nov 9, 2012

Classification
Accident

Aircraft Registration
N619BA

ICAO Type Designator
SW4

This article is published under license from Avherald.com. © of text by Avherald.com.
Article source

You can read 4 more free articles without a subscription.

Subscribe now and continue reading without any limits!

Are you a subscriber?
Login
Subscribe

Read unlimited articles and receive our daily update briefing. Gain better insights into what is happening in commercial aviation safety.

Free newsletter

Want to know more and stay ahead? Get our free weekly newsletter and join 4944 existing subscribers.

By subscribing, you accept our terms and conditions and confirm that you've read our privacy policy.

Send tip

Support AeroInside by sending a small tip amount.

Newest articles

Subscribe today

Are you researching aviation incidents? Get access to AeroInside Insights, unlimited read access and receive the daily newsletter.

Pick your plan and subscribe

Partner

Blockaviation logo

A new way to document and demonstrate airworthiness compliance and aircraft value. Find out more.

Virtual Speech logo

ELITE Simulation Solutions is a leading global provider of Flight Simulation Training Devices, IFR training software as well as flight controls and related services. Find out more.

Get updates

Never miss an article from AeroInside. Subscribe to our free weekly newsletter and join 4944 existing subscribers.

By subscribing, you accept our terms and conditions and that you've read our privacy policy.

AeroInside Blog
Popular aircraft
Airbus A320
Boeing 737-800
Boeing 737-800 MAX
Popular airlines
American Airlines
United
Delta
Air Canada
Lufthansa
British Airways